Time;durP1;ratioP1;P1;durP2;ratioP2;P2;SDS_P1;SDS_P2;PMS_P1;PMS_P2;Temp;Humidity;BMP_temperature;BMP_pressure;BME280_temperature;BME280_humidity;BME280_pressure;Samples;Min_cycle;Max_cycle;Signal;HPM_P1;HPM_P2
2022/06/09 17:33:27;;;;;;;9.90;1.92;;;20.30;66.80;;;;;;5132686;27;20700;-73
2022/06/09 17:35:52;;;;;;;9.98;1.83;;;20.30;66.00;;;;;;5112639;28;20048;-72
2022/06/09 17:38:20;;;;;;;6.93;1.10;;;20.30;65.20;;;;;;5112970;28;20052;-74
2022/06/09 17:40:46;;;;;;;9.98;1.42;;;20.30;65.40;;;;;;5112540;28;20039;-74
2022/06/09 17:43:12;;;;;;;5.72;1.13;;;20.20;65.10;;;;;;5112110;28;20126;-74
2022/06/09 17:45:40;;;;;;;5.30;1.23;;;20.20;65.80;;;;;;5112732;28;20118;-73
2022/06/09 17:48:07;;;;;;;7.18;1.65;;;20.30;66.00;;;;;;5113019;28;20119;-74
2022/06/09 17:50:35;;;;;;;7.28;1.42;;;20.30;65.90;;;;;;5112621;28;20044;-74
2022/06/09 17:53:01;;;;;;;6.78;1.17;;;20.20;65.90;;;;;;5112297;28;20050;-79
2022/06/09 17:55:29;;;;;;;9.80;2.00;;;20.30;66.20;;;;;;5078000;28;20414;-81
2022/06/09 17:57:56;;;;;;;11.30;2.03;;;20.30;66.50;;;;;;5094766;28;20058;-77
2022/06/09 18:00:34;;;;;;;12.00;2.10;;;20.30;66.70;;;;;;5112770;28;20035;-82
2022/06/09 18:03:01;;;;;;;9.07;2.00;;;20.30;66.70;;;;;;5107389;28;20052;-78
2022/06/09 18:05:27;;;;;;;9.25;1.60;;;20.30;67.10;;;;;;5112310;28;20387;-79
2022/06/09 18:07:54;;;;;;;14.02;1.85;;;20.30;66.50;;;;;;5112633;28;20044;-79
2022/06/09 18:10:27;;;;;;;14.30;2.45;;;20.30;65.40;;;;;;5077911;28;20438;-80
2022/06/09 18:12:56;;;;;;;9.63;2.10;;;20.30;64.60;;;;;;5111576;28;20031;-79
2022/06/09 18:15:27;;;;;;;7.25;1.73;;;20.20;64.60;;;;;;5111952;28;20361;-79
2022/06/09 18:17:56;;;;;;;7.70;1.77;;;20.20;63.60;;;;;;5110951;28;20461;-78
2022/06/09 18:20:23;;;;;;;7.05;1.73;;;20.20;63.60;;;;;;5105186;28;20071;-80
2022/06/09 18:22:51;;;;;;;9.77;2.20;;;20.10;64.30;;;;;;5094327;28;20054;-78
2022/06/09 18:25:19;;;;;;;9.07;1.65;;;20.10;64.70;;;;;;5093875;28;20044;-79
2022/06/09 18:27:45;;;;;;;15.18;2.20;;;20.10;65.10;;;;;;5111588;28;20044;-81
2022/06/09 18:30:11;;;;;;;8.13;1.90;;;20.10;65.40;;;;;;5111426;28;20126;-79
2022/06/09 18:32:37;;;;;;;10.77;2.22;;;20.20;65.50;;;;;;5068301;28;20127;-80
2022/06/09 18:35:03;;;;;;;10.07;2.10;;;20.20;65.50;;;;;;5090083;28;20057;-77
2022/06/09 18:37:29;;;;;;;15.63;2.55;;;20.20;65.50;;;;;;5090363;28;20040;-78
2022/06/09 18:39:55;;;;;;;7.95;1.88;;;20.20;65.50;;;;;;5073345;28;20074;-78
2022/06/09 18:42:21;;;;;;;8.27;1.88;;;20.20;65.40;;;;;;5074205;28;20040;-80
2022/06/09 18:44:47;;;;;;;14.00;1.85;;;20.20;65.40;;;;;;5076043;28;20474;-82
2022/06/09 18:47:14;;;;;;;8.98;1.88;;;20.20;65.40;;;;;;5059841;28;20032;-79
2022/06/09 18:49:41;;;;;;;10.30;1.98;;;20.20;65.50;;;;;;5059893;28;20046;-78
2022/06/09 18:52:08;;;;;;;6.05;1.50;;;20.30;65.60;;;;;;5076669;28;20040;-78
2022/06/09 18:54:34;;;;;;;6.97;1.80;;;20.20;65.60;;;;;;5059414;28;20051;-78
2022/06/09 18:57:01;;;;;;;8.02;1.42;;;20.30;65.70;;;;;;5076542;28;20043;-78
2022/06/09 18:59:27;;;;;;;6.72;1.88;;;20.30;65.80;;;;;;5076599;28;20138;-79
2022/06/09 19:01:53;;;;;;;5.07;1.88;;;20.20;65.80;;;;;;5060399;28;20056;-79
2022/06/09 19:04:18;;;;;;;8.02;1.77;;;20.30;65.80;;;;;;5059380;28;20469;-79
2022/06/09 19:06:46;;;;;;;6.15;2.00;;;20.20;65.90;;;;;;5076365;28;20051;-79
2022/06/09 19:09:12;;;;;;;8.45;2.17;;;20.30;66.00;;;;;;5059855;28;20040;-79
2022/06/09 19:11:38;;;;;;;6.57;1.42;;;20.30;66.00;;;;;;5076321;28;20037;-80
2022/06/09 19:14:07;;;;;;;6.53;1.60;;;20.30;66.10;;;;;;5059547;28;20032;-78
2022/06/09 19:16:34;;;;;;;7.63;1.42;;;20.30;66.10;;;;;;5072390;28;20041;-79
2022/06/09 19:19:00;;;;;;;4.32;1.35;;;20.30;66.20;;;;;;5056219;28;20044;-79
2022/06/09 19:21:26;;;;;;;6.38;1.73;;;20.30;66.30;;;;;;5058284;28;20037;-79
2022/06/09 19:23:52;;;;;;;8.90;2.30;;;20.20;66.20;;;;;;5059525;28;20051;-80
2022/06/09 19:26:18;;;;;;;4.85;1.23;;;20.20;66.30;;;;;;5076547;28;20135;-78
2022/06/09 19:28:44;;;;;;;8.40;1.42;;;20.20;66.40;;;;;;5075733;28;20045;-77
